sensor_id;sensor_type;location;lat;lon;timestamp;P1;durP1;ratioP1;P2;durP2;ratioP2
56667;SDS011;42542;48.360;10.958;2022-09-09T00:03:11;6.57;;;2.80;;
56667;SDS011;42542;48.360;10.958;2022-09-09T00:09:21;8.77;;;2.80;;
56667;SDS011;42542;48.360;10.958;2022-09-09T00:22:34;8.05;;;3.03;;
56667;SDS011;42542;48.360;10.958;2022-09-09T00:25:42;6.30;;;2.60;;
56667;SDS011;42542;48.360;10.958;2022-09-09T00:28:55;6.90;;;2.78;;
56667;SDS011;42542;48.360;10.958;2022-09-09T00:32:13;7.28;;;3.15;;
56667;SDS011;42542;48.360;10.958;2022-09-09T00:42:23;7.00;;;2.80;;
56667;SDS011;42542;48.360;10.958;2022-09-09T00:58:15;6.97;;;3.10;;
56667;SDS011;42542;48.360;10.958;2022-09-09T01:01:17;6.75;;;3.00;;
56667;SDS011;42542;48.360;10.958;2022-09-09T01:04:21;7.70;;;3.00;;
56667;SDS011;42542;48.360;10.958;2022-09-09T01:07:32;6.50;;;3.00;;
56667;SDS011;42542;48.360;10.958;2022-09-09T01:10:57;9.57;;;3.10;;
56667;SDS011;42542;48.360;10.958;2022-09-09T01:17:17;7.93;;;3.20;;
56667;SDS011;42542;48.360;10.958;2022-09-09T01:20:38;8.13;;;2.90;;
56667;SDS011;42542;48.360;10.958;2022-09-09T01:27:41;7.30;;;2.72;;
56667;SDS011;42542;48.360;10.958;2022-09-09T01:30:45;7.03;;;3.10;;
56667;SDS011;42542;48.360;10.958;2022-09-09T01:33:50;6.47;;;3.05;;
56667;SDS011;42542;48.360;10.958;2022-09-09T01:36:56;8.37;;;3.03;;
56667;SDS011;42542;48.360;10.958;2022-09-09T01:39:59;7.65;;;3.17;;
56667;SDS011;42542;48.360;10.958;2022-09-09T01:43:01;8.98;;;3.63;;
56667;SDS011;42542;48.360;10.958;2022-09-09T01:46:04;8.82;;;3.40;;
56667;SDS011;42542;48.360;10.958;2022-09-09T01:49:08;8.57;;;3.40;;
56667;SDS011;42542;48.360;10.958;2022-09-09T01:52:11;9.98;;;3.80;;
56667;SDS011;42542;48.360;10.958;2022-09-09T01:55:13;7.35;;;3.10;;
56667;SDS011;42542;48.360;10.958;2022-09-09T02:01:31;8.05;;;3.45;;
56667;SDS011;42542;48.360;10.958;2022-09-09T02:04:39;6.97;;;3.07;;
56667;SDS011;42542;48.360;10.958;2022-09-09T02:07:50;6.97;;;3.17;;
56667;SDS011;42542;48.360;10.958;2022-09-09T02:11:17;6.93;;;3.30;;
56667;SDS011;42542;48.360;10.958;2022-09-09T02:14:30;7.82;;;3.50;;
56667;SDS011;42542;48.360;10.958;2022-09-09T02:17:43;7.80;;;3.20;;
56667;SDS011;42542;48.360;10.958;2022-09-09T02:20:50;6.30;;;2.90;;
56667;SDS011;42542;48.360;10.958;2022-09-09T02:23:54;7.13;;;3.20;;
56667;SDS011;42542;48.360;10.958;2022-09-09T02:27:03;6.65;;;3.20;;
56667;SDS011;42542;48.360;10.958;2022-09-09T02:30:10;9.27;;;3.35;;
56667;SDS011;42542;48.360;10.958;2022-09-09T02:33:19;9.77;;;3.33;;
56667;SDS011;42542;48.360;10.958;2022-09-09T02:36:25;8.20;;;3.50;;
56667;SDS011;42542;48.360;10.958;2022-09-09T02:39:30;7.43;;;3.50;;
56667;SDS011;42542;48.360;10.958;2022-09-09T02:42:38;8.30;;;3.38;;
56667;SDS011;42542;48.360;10.958;2022-09-09T02:45:47;7.80;;;3.50;;
56667;SDS011;42542;48.360;10.958;2022-09-09T02:49:04;9.40;;;3.80;;
56667;SDS011;42542;48.360;10.958;2022-09-09T02:52:14;8.27;;;3.63;;
56667;SDS011;42542;48.360;10.958;2022-09-09T02:58:43;9.55;;;3.80;;
56667;SDS011;42542;48.360;10.958;2022-09-09T03:01:45;7.13;;;3.70;;
56667;SDS011;42542;48.360;10.958;2022-09-09T03:04:47;7.78;;;3.90;;
56667;SDS011;42542;48.360;10.958;2022-09-09T03:07:52;8.57;;;4.18;;
56667;SDS011;42542;48.360;10.958;2022-09-09T03:10:54;9.50;;;3.97;;
56667;SDS011;42542;48.360;10.958;2022-09-09T03:13:59;9.77;;;3.70;;
56667;SDS011;42542;48.360;10.958;2022-09-09T03:17:05;7.50;;;3.45;;
56667;SDS011;42542;48.360;10.958;2022-09-09T03:20:12;8.88;;;3.70;;
56667;SDS011;42542;48.360;10.958;2022-09-09T03:23:14;7.38;;;3.17;;
56667;SDS011;42542;48.360;10.958;2022-09-09T03:26:18;8.65;;;3.33;;
56667;SDS011;42542;48.360;10.958;2022-09-09T03:29:21;8.57;;;3.70;;
56667;SDS011;42542;48.360;10.958;2022-09-09T03:32:27;8.55;;;3.47;;
56667;SDS011;42542;48.360;10.958;2022-09-09T03:35:30;7.60;;;3.65;;
56667;SDS011;42542;48.360;10.958;2022-09-09T03:38:33;8.90;;;3.60;;
56667;SDS011;42542;48.360;10.958;2022-09-09T03:41:35;9.60;;;3.20;;
56667;SDS011;42542;48.360;10.958;2022-09-09T03:44:39;7.57;;;3.38;;
56667;SDS011;42542;48.360;10.958;2022-09-09T03:47:43;8.02;;;3.10;;
56667;SDS011;42542;48.360;10.958;2022-09-09T03:50:49;8.60;;;3.15;;
56667;SDS011;42542;48.360;10.958;2022-09-09T03:53:55;7.95;;;3.30;;
56667;SDS011;42542;48.360;10.958;2022-09-09T03:56:59;7.10;;;3.00;;
56667;SDS011;42542;48.360;10.958;2022-09-09T04:00:05;7.10;;;3.08;;
56667;SDS011;42542;48.360;10.958;2022-09-09T04:03:16;6.47;;;3.00;;
56667;SDS011;42542;48.360;10.958;2022-09-09T04:06:18;6.82;;;2.75;;
56667;SDS011;42542;48.360;10.958;2022-09-09T04:09:22;9.17;;;3.40;;
56667;SDS011;42542;48.360;10.958;2022-09-09T04:12:25;10.00;;;3.30;;
56667;SDS011;42542;48.360;10.958;2022-09-09T04:15:27;7.07;;;3.05;;
56667;SDS011;42542;48.360;10.958;2022-09-09T04:18:32;8.95;;;3.20;;
56667;SDS011;42542;48.360;10.958;2022-09-09T04:21:35;7.73;;;2.83;;
56667;SDS011;42542;48.360;10.958;2022-09-09T04:24:37;7.90;;;3.40;;
56667;SDS011;42542;48.360;10.958;2022-09-09T04:27:39;7.10;;;2.90;;
56667;SDS011;42542;48.360;10.958;2022-09-09T04:30:41;8.32;;;3.33;;
56667;SDS011;42542;48.360;10.958;2022-09-09T04:33:44;9.33;;;3.30;;
56667;SDS011;42542;48.360;10.958;2022-09-09T04:36:46;8.65;;;3.10;;
56667;SDS011;42542;48.360;10.958;2022-09-09T04:39:48;8.40;;;3.22;;
56667;SDS011;42542;48.360;10.958;2022-09-09T04:42:50;7.30;;;3.10;;
56667;SDS011;42542;48.360;10.958;2022-09-09T04:45:52;7.40;;;2.95;;
56667;SDS011;42542;48.360;10.958;2022-09-09T04:48:57;6.97;;;2.80;;
56667;SDS011;42542;48.360;10.958;2022-09-09T04:52:03;8.07;;;3.00;;
56667;SDS011;42542;48.360;10.958;2022-09-09T04:55:08;7.53;;;2.70;;
56667;SDS011;42542;48.360;10.958;2022-09-09T04:58:11;8.10;;;2.80;;
56667;SDS011;42542;48.360;10.958;2022-09-09T05:01:14;7.77;;;2.73;;
56667;SDS011;42542;48.360;10.958;2022-09-09T05:04:20;7.05;;;2.90;;
56667;SDS011;42542;48.360;10.958;2022-09-09T05:07:22;7.35;;;2.78;;
56667;SDS011;42542;48.360;10.958;2022-09-09T05:10:24;7.43;;;2.67;;
56667;SDS011;42542;48.360;10.958;2022-09-09T05:13:28;8.00;;;2.75;;
56667;SDS011;42542;48.360;10.958;2022-09-09T05:16:30;8.25;;;2.70;;
56667;SDS011;42542;48.360;10.958;2022-09-09T05:19:32;7.53;;;2.90;;
56667;SDS011;42542;48.360;10.958;2022-09-09T05:22:35;6.70;;;2.30;;
56667;SDS011;42542;48.360;10.958;2022-09-09T05:25:37;7.50;;;2.70;;
56667;SDS011;42542;48.360;10.958;2022-09-09T05:28:39;9.60;;;2.70;;
56667;SDS011;42542;48.360;10.958;2022-09-09T05:31:41;7.63;;;3.03;;
56667;SDS011;42542;48.360;10.958;2022-09-09T05:34:47;6.03;;;2.70;;
56667;SDS011;42542;48.360;10.958;2022-09-09T05:37:49;11.40;;;3.15;;
56667;SDS011;42542;48.360;10.958;2022-09-09T05:40:51;7.70;;;2.60;;
56667;SDS011;42542;48.360;10.958;2022-09-09T05:43:53;6.80;;;2.60;;
56667;SDS011;42542;48.360;10.958;2022-09-09T05:46:56;7.78;;;2.45;;
56667;SDS011;42542;48.360;10.958;2022-09-09T05:49:59;8.38;;;2.92;;
56667;SDS011;42542;48.360;10.958;2022-09-09T05:53:01;7.47;;;3.10;;
56667;SDS011;42542;48.360;10.958;2022-09-09T05:56:04;6.53;;;2.63;;
56667;SDS011;42542;48.360;10.958;2022-09-09T05:59:09;7.05;;;2.35;;
56667;SDS011;42542;48.360;10.958;2022-09-09T06:02:12;6.90;;;2.58;;
56667;SDS011;42542;48.360;10.958;2022-09-09T06:05:15;9.80;;;2.60;;
56667;SDS011;42542;48.360;10.958;2022-09-09T06:08:17;8.57;;;2.70;;
56667;SDS011;42542;48.360;10.958;2022-09-09T06:11:22;7.07;;;2.90;;
56667;SDS011;42542;48.360;10.958;2022-09-09T06:14:35;8.98;;;2.60;;
56667;SDS011;42542;48.360;10.958;2022-09-09T06:17:38;8.02;;;2.55;;
56667;SDS011;42542;48.360;10.958;2022-09-09T06:20:40;7.10;;;2.58;;
56667;SDS011;42542;48.360;10.958;2022-09-09T06:23:42;5.40;;;2.40;;
56667;SDS011;42542;48.360;10.958;2022-09-09T06:26:45;8.30;;;2.40;;
56667;SDS011;42542;48.360;10.958;2022-09-09T06:29:53;6.40;;;2.63;;
56667;SDS011;42542;48.360;10.958;2022-09-09T06:32:55;7.40;;;2.50;;
56667;SDS011;42542;48.360;10.958;2022-09-09T06:35:57;8.95;;;2.60;;
56667;SDS011;42542;48.360;10.958;2022-09-09T06:38:59;6.60;;;2.43;;
56667;SDS011;42542;48.360;10.958;2022-09-09T06:42:04;7.97;;;2.40;;
56667;SDS011;42542;48.360;10.958;2022-09-09T06:45:18;6.75;;;2.20;;
56667;SDS011;42542;48.360;10.958;2022-09-09T06:48:27;6.00;;;2.30;;
56667;SDS011;42542;48.360;10.958;2022-09-09T06:51:31;6.93;;;2.60;;
56667;SDS011;42542;48.360;10.958;2022-09-09T06:54:37;8.00;;;2.57;;
56667;SDS011;42542;48.360;10.958;2022-09-09T06:57:39;7.28;;;2.50;;
56667;SDS011;42542;48.360;10.958;2022-09-09T07:00:47;7.28;;;2.65;;
56667;SDS011;42542;48.360;10.958;2022-09-09T07:03:50;6.85;;;2.13;;
56667;SDS011;42542;48.360;10.958;2022-09-09T07:06:54;9.88;;;2.53;;
56667;SDS011;42542;48.360;10.958;2022-09-09T07:09:58;8.33;;;2.30;;
56667;SDS011;42542;48.360;10.958;2022-09-09T07:13:00;8.48;;;2.58;;
56667;SDS011;42542;48.360;10.958;2022-09-09T07:16:10;6.63;;;2.58;;
56667;SDS011;42542;48.360;10.958;2022-09-09T07:19:14;7.13;;;2.40;;
56667;SDS011;42542;48.360;10.958;2022-09-09T07:22:17;6.43;;;2.47;;
56667;SDS011;42542;48.360;10.958;2022-09-09T07:25:20;7.67;;;2.40;;
56667;SDS011;42542;48.360;10.958;2022-09-09T07:28:23;6.53;;;2.40;;
56667;SDS011;42542;48.360;10.958;2022-09-09T07:31:27;7.40;;;2.40;;
56667;SDS011;42542;48.360;10.958;2022-09-09T07:34:32;5.90;;;2.33;;
56667;SDS011;42542;48.360;10.958;2022-09-09T07:37:36;7.60;;;2.40;;
56667;SDS011;42542;48.360;10.958;2022-09-09T07:40:39;7.70;;;2.60;;
56667;SDS011;42542;48.360;10.958;2022-09-09T07:43:41;8.07;;;2.40;;
56667;SDS011;42542;48.360;10.958;2022-09-09T07:46:45;7.82;;;2.22;;
56667;SDS011;42542;48.360;10.958;2022-09-09T07:49:51;5.97;;;2.38;;
56667;SDS011;42542;48.360;10.958;2022-09-09T07:52:58;8.52;;;2.55;;
56667;SDS011;42542;48.360;10.958;2022-09-09T07:56:08;6.80;;;2.30;;
56667;SDS011;42542;48.360;10.958;2022-09-09T07:59:12;7.70;;;2.38;;
56667;SDS011;42542;48.360;10.958;2022-09-09T08:02:17;6.63;;;2.53;;
56667;SDS011;42542;48.360;10.958;2022-09-09T08:05:19;8.93;;;2.50;;
56667;SDS011;42542;48.360;10.958;2022-09-09T08:08:22;6.80;;;2.15;;
56667;SDS011;42542;48.360;10.958;2022-09-09T08:11:25;7.03;;;2.30;;
56667;SDS011;42542;48.360;10.958;2022-09-09T08:14:28;6.93;;;2.60;;
56667;SDS011;42542;48.360;10.958;2022-09-09T08:17:32;6.38;;;2.22;;
56667;SDS011;42542;48.360;10.958;2022-09-09T08:20:38;7.97;;;2.50;;
56667;SDS011;42542;48.360;10.958;2022-09-09T08:23:40;6.10;;;2.60;;
56667;SDS011;42542;48.360;10.958;2022-09-09T08:26:44;7.40;;;2.27;;
56667;SDS011;42542;48.360;10.958;2022-09-09T08:29:49;7.10;;;2.13;;
56667;SDS011;42542;48.360;10.958;2022-09-09T08:32:51;7.35;;;2.35;;
56667;SDS011;42542;48.360;10.958;2022-09-09T08:35:55;7.18;;;2.25;;
56667;SDS011;42542;48.360;10.958;2022-09-09T08:38:57;6.28;;;1.85;;
56667;SDS011;42542;48.360;10.958;2022-09-09T08:45:18;6.32;;;1.85;;
56667;SDS011;42542;48.360;10.958;2022-09-09T08:48:35;5.28;;;2.00;;
56667;SDS011;42542;48.360;10.958;2022-09-09T08:52:22;5.68;;;1.80;;
56667;SDS011;42542;48.360;10.958;2022-09-09T08:58:53;6.10;;;1.80;;
56667;SDS011;42542;48.360;10.958;2022-09-09T09:02:18;5.65;;;1.70;;
56667;SDS011;42542;48.360;10.958;2022-09-09T09:05:31;6.40;;;1.90;;
56667;SDS011;42542;48.360;10.958;2022-09-09T09:11:47;5.60;;;1.83;;
56667;SDS011;42542;48.360;10.958;2022-09-09T09:14:57;5.47;;;1.70;;
56667;SDS011;42542;48.360;10.958;2022-09-09T09:18:01;5.00;;;1.75;;
56667;SDS011;42542;48.360;10.958;2022-09-09T09:27:57;5.47;;;1.95;;
56667;SDS011;42542;48.360;10.958;2022-09-09T09:31:11;7.90;;;1.90;;
56667;SDS011;42542;48.360;10.958;2022-09-09T09:34:18;5.82;;;1.83;;
56667;SDS011;42542;48.360;10.958;2022-09-09T09:37:25;5.88;;;1.70;;
56667;SDS011;42542;48.360;10.958;2022-09-09T09:40:30;4.90;;;1.60;;
56667;SDS011;42542;48.360;10.958;2022-09-09T09:43:40;5.70;;;1.60;;
56667;SDS011;42542;48.360;10.958;2022-09-09T09:46:48;7.43;;;1.90;;
56667;SDS011;42542;48.360;10.958;2022-09-09T09:49:57;4.95;;;1.50;;
56667;SDS011;42542;48.360;10.958;2022-09-09T09:53:04;4.60;;;1.40;;
56667;SDS011;42542;48.360;10.958;2022-09-09T09:56:13;6.18;;;1.50;;
56667;SDS011;42542;48.360;10.958;2022-09-09T09:59:32;4.45;;;1.40;;
56667;SDS011;42542;48.360;10.958;2022-09-09T10:02:47;6.30;;;1.40;;
56667;SDS011;42542;48.360;10.958;2022-09-09T10:05:55;5.05;;;1.40;;
56667;SDS011;42542;48.360;10.958;2022-09-09T10:08:57;5.47;;;1.55;;
56667;SDS011;42542;48.360;10.958;2022-09-09T10:22:09;5.78;;;1.20;;
56667;SDS011;42542;48.360;10.958;2022-09-09T10:25:38;5.38;;;1.35;;
56667;SDS011;42542;48.360;10.958;2022-09-09T10:42:43;6.47;;;1.60;;
56667;SDS011;42542;48.360;10.958;2022-09-09T10:45:48;6.55;;;1.35;;
56667;SDS011;42542;48.360;10.958;2022-09-09T10:52:18;5.47;;;1.40;;
56667;SDS011;42542;48.360;10.958;2022-09-09T11:02:18;5.60;;;1.30;;
56667;SDS011;42542;48.360;10.958;2022-09-09T11:05:36;5.10;;;1.40;;
56667;SDS011;42542;48.360;10.958;2022-09-09T11:08:43;5.73;;;1.40;;
56667;SDS011;42542;48.360;10.958;2022-09-09T11:11:49;6.25;;;1.77;;
56667;SDS011;42542;48.360;10.958;2022-09-09T11:15:39;5.65;;;1.35;;
56667;SDS011;42542;48.360;10.958;2022-09-09T11:18:55;5.60;;;1.30;;
56667;SDS011;42542;48.360;10.958;2022-09-09T11:25:35;5.70;;;1.47;;
56667;SDS011;42542;48.360;10.958;2022-09-09T11:38:45;5.68;;;1.38;;
56667;SDS011;42542;48.360;10.958;2022-09-09T11:41:55;7.23;;;2.00;;
56667;SDS011;42542;48.360;10.958;2022-09-09T11:45:26;5.15;;;1.20;;
56667;SDS011;42542;48.360;10.958;2022-09-09T11:51:36;5.82;;;1.50;;
56667;SDS011;42542;48.360;10.958;2022-09-09T11:54:44;4.63;;;1.27;;
56667;SDS011;42542;48.360;10.958;2022-09-09T11:57:56;4.73;;;1.30;;
56667;SDS011;42542;48.360;10.958;2022-09-09T12:01:00;6.32;;;1.60;;
56667;SDS011;42542;48.360;10.958;2022-09-09T12:04:06;5.78;;;1.30;;
56667;SDS011;42542;48.360;10.958;2022-09-09T12:10:20;7.25;;;1.40;;
56667;SDS011;42542;48.360;10.958;2022-09-09T12:13:29;5.10;;;1.50;;
56667;SDS011;42542;48.360;10.958;2022-09-09T12:16:33;5.10;;;1.40;;
56667;SDS011;42542;48.360;10.958;2022-09-09T12:19:40;5.65;;;1.27;;
56667;SDS011;42542;48.360;10.958;2022-09-09T12:29:42;5.67;;;1.33;;
56667;SDS011;42542;48.360;10.958;2022-09-09T12:33:13;7.85;;;1.50;;
56667;SDS011;42542;48.360;10.958;2022-09-09T12:36:19;6.80;;;1.42;;
56667;SDS011;42542;48.360;10.958;2022-09-09T12:39:25;4.65;;;1.30;;
56667;SDS011;42542;48.360;10.958;2022-09-09T12:42:33;5.65;;;1.45;;
56667;SDS011;42542;48.360;10.958;2022-09-09T12:45:42;5.00;;;1.40;;
56667;SDS011;42542;48.360;10.958;2022-09-09T12:48:44;5.63;;;1.40;;
56667;SDS011;42542;48.360;10.958;2022-09-09T12:51:46;6.80;;;1.55;;
56667;SDS011;42542;48.360;10.958;2022-09-09T12:54:49;6.13;;;1.45;;
56667;SDS011;42542;48.360;10.958;2022-09-09T12:57:54;6.45;;;1.58;;
56667;SDS011;42542;48.360;10.958;2022-09-09T13:00:57;6.23;;;1.53;;
56667;SDS011;42542;48.360;10.958;2022-09-09T13:03:59;7.32;;;1.55;;
56667;SDS011;42542;48.360;10.958;2022-09-09T13:07:05;5.93;;;1.40;;
56667;SDS011;42542;48.360;10.958;2022-09-09T13:10:13;7.80;;;1.50;;
56667;SDS011;42542;48.360;10.958;2022-09-09T13:13:40;6.03;;;1.67;;
56667;SDS011;42542;48.360;10.958;2022-09-09T13:16:58;7.17;;;1.50;;
56667;SDS011;42542;48.360;10.958;2022-09-09T13:20:02;7.03;;;1.60;;
56667;SDS011;42542;48.360;10.958;2022-09-09T13:23:05;6.65;;;1.45;;
56667;SDS011;42542;48.360;10.958;2022-09-09T13:26:23;7.88;;;1.55;;
56667;SDS011;42542;48.360;10.958;2022-09-09T13:29:27;6.00;;;1.40;;
56667;SDS011;42542;48.360;10.958;2022-09-09T13:32:29;6.93;;;1.40;;
56667;SDS011;42542;48.360;10.958;2022-09-09T13:35:32;5.55;;;1.30;;
56667;SDS011;42542;48.360;10.958;2022-09-09T13:41:42;8.00;;;1.40;;
56667;SDS011;42542;48.360;10.958;2022-09-09T13:44:45;5.90;;;1.30;;
56667;SDS011;42542;48.360;10.958;2022-09-09T13:47:49;6.33;;;1.40;;
56667;SDS011;42542;48.360;10.958;2022-09-09T13:51:01;5.55;;;1.38;;
56667;SDS011;42542;48.360;10.958;2022-09-09T13:54:08;4.78;;;1.50;;
56667;SDS011;42542;48.360;10.958;2022-09-09T13:57:16;5.28;;;1.38;;
56667;SDS011;42542;48.360;10.958;2022-09-09T14:00:19;4.93;;;1.35;;
56667;SDS011;42542;48.360;10.958;2022-09-09T14:03:24;7.03;;;1.30;;
56667;SDS011;42542;48.360;10.958;2022-09-09T14:06:25;5.38;;;1.30;;
56667;SDS011;42542;48.360;10.958;2022-09-09T14:09:27;5.40;;;1.10;;
56667;SDS011;42542;48.360;10.958;2022-09-09T14:12:29;4.90;;;1.30;;
56667;SDS011;42542;48.360;10.958;2022-09-09T14:15:31;6.53;;;1.30;;
56667;SDS011;42542;48.360;10.958;2022-09-09T14:18:33;6.23;;;1.43;;
56667;SDS011;42542;48.360;10.958;2022-09-09T14:21:35;10.75;;;1.70;;
56667;SDS011;42542;48.360;10.958;2022-09-09T14:24:37;8.10;;;1.90;;
56667;SDS011;42542;48.360;10.958;2022-09-09T14:27:41;9.93;;;2.10;;
56667;SDS011;42542;48.360;10.958;2022-09-09T14:30:43;6.63;;;1.67;;
56667;SDS011;42542;48.360;10.958;2022-09-09T14:33:45;5.77;;;1.40;;
56667;SDS011;42542;48.360;10.958;2022-09-09T14:36:47;8.73;;;1.70;;
56667;SDS011;42542;48.360;10.958;2022-09-09T14:39:49;5.82;;;1.35;;
56667;SDS011;42542;48.360;10.958;2022-09-09T14:42:52;5.97;;;1.50;;
56667;SDS011;42542;48.360;10.958;2022-09-09T14:45:54;5.32;;;1.52;;
56667;SDS011;42542;48.360;10.958;2022-09-09T14:48:56;6.20;;;1.53;;
56667;SDS011;42542;48.360;10.958;2022-09-09T14:51:58;4.50;;;1.30;;
56667;SDS011;42542;48.360;10.958;2022-09-09T14:55:00;7.70;;;1.40;;
56667;SDS011;42542;48.360;10.958;2022-09-09T14:58:02;4.22;;;1.27;;
56667;SDS011;42542;48.360;10.958;2022-09-09T15:04:07;5.33;;;1.50;;
56667;SDS011;42542;48.360;10.958;2022-09-09T15:07:09;4.53;;;1.30;;
56667;SDS011;42542;48.360;10.958;2022-09-09T15:10:12;6.03;;;1.60;;
56667;SDS011;42542;48.360;10.958;2022-09-09T15:13:14;6.60;;;1.58;;
56667;SDS011;42542;48.360;10.958;2022-09-09T15:16:18;4.75;;;1.55;;
56667;SDS011;42542;48.360;10.958;2022-09-09T15:19:21;5.93;;;1.40;;
56667;SDS011;42542;48.360;10.958;2022-09-09T15:22:23;5.38;;;1.50;;
56667;SDS011;42542;48.360;10.958;2022-09-09T15:25:25;5.65;;;1.55;;
56667;SDS011;42542;48.360;10.958;2022-09-09T15:28:28;5.50;;;1.70;;
56667;SDS011;42542;48.360;10.958;2022-09-09T15:31:32;5.60;;;1.55;;
56667;SDS011;42542;48.360;10.958;2022-09-09T15:34:33;5.73;;;1.47;;
56667;SDS011;42542;48.360;10.958;2022-09-09T15:37:35;6.05;;;1.60;;
56667;SDS011;42542;48.360;10.958;2022-09-09T15:40:37;6.45;;;1.60;;
56667;SDS011;42542;48.360;10.958;2022-09-09T15:43:39;5.38;;;1.48;;
56667;SDS011;42542;48.360;10.958;2022-09-09T15:46:46;5.15;;;1.30;;
56667;SDS011;42542;48.360;10.958;2022-09-09T15:49:51;4.97;;;1.50;;
56667;SDS011;42542;48.360;10.958;2022-09-09T15:52:53;5.55;;;1.40;;
56667;SDS011;42542;48.360;10.958;2022-09-09T15:55:55;6.07;;;1.75;;
56667;SDS011;42542;48.360;10.958;2022-09-09T15:58:58;6.00;;;1.90;;
56667;SDS011;42542;48.360;10.958;2022-09-09T16:02:00;5.25;;;1.80;;
56667;SDS011;42542;48.360;10.958;2022-09-09T16:05:02;6.53;;;2.00;;
56667;SDS011;42542;48.360;10.958;2022-09-09T16:08:04;5.32;;;1.60;;
56667;SDS011;42542;48.360;10.958;2022-09-09T16:14:14;6.47;;;2.00;;
56667;SDS011;42542;48.360;10.958;2022-09-09T16:17:20;6.18;;;2.00;;
56667;SDS011;42542;48.360;10.958;2022-09-09T16:20:22;4.87;;;1.83;;
56667;SDS011;42542;48.360;10.958;2022-09-09T16:23:24;6.65;;;1.60;;
56667;SDS011;42542;48.360;10.958;2022-09-09T16:26:26;5.07;;;1.83;;
56667;SDS011;42542;48.360;10.958;2022-09-09T16:29:29;6.05;;;1.92;;
56667;SDS011;42542;48.360;10.958;2022-09-09T16:32:30;5.00;;;1.50;;
56667;SDS011;42542;48.360;10.958;2022-09-09T16:35:35;5.37;;;1.83;;
56667;SDS011;42542;48.360;10.958;2022-09-09T16:38:37;6.13;;;2.13;;
56667;SDS011;42542;48.360;10.958;2022-09-09T16:41:40;6.03;;;1.70;;
56667;SDS011;42542;48.360;10.958;2022-09-09T16:44:42;5.78;;;1.90;;
56667;SDS011;42542;48.360;10.958;2022-09-09T16:47:44;5.28;;;1.73;;
56667;SDS011;42542;48.360;10.958;2022-09-09T16:50:49;7.43;;;1.80;;
56667;SDS011;42542;48.360;10.958;2022-09-09T16:53:51;6.07;;;1.90;;
56667;SDS011;42542;48.360;10.958;2022-09-09T16:56:54;6.07;;;1.77;;
56667;SDS011;42542;48.360;10.958;2022-09-09T16:59:56;7.47;;;2.10;;
56667;SDS011;42542;48.360;10.958;2022-09-09T17:03:00;7.47;;;1.90;;
56667;SDS011;42542;48.360;10.958;2022-09-09T17:06:02;5.40;;;1.97;;
56667;SDS011;42542;48.360;10.958;2022-09-09T17:09:09;6.47;;;2.17;;
56667;SDS011;42542;48.360;10.958;2022-09-09T17:12:11;7.28;;;2.10;;
56667;SDS011;42542;48.360;10.958;2022-09-09T17:15:13;5.97;;;2.10;;
56667;SDS011;42542;48.360;10.958;2022-09-09T17:18:16;7.18;;;1.92;;
56667;SDS011;42542;48.360;10.958;2022-09-09T17:21:19;6.87;;;2.10;;
56667;SDS011;42542;48.360;10.958;2022-09-09T17:24:23;7.63;;;2.40;;
56667;SDS011;42542;48.360;10.958;2022-09-09T17:27:24;6.32;;;2.30;;
56667;SDS011;42542;48.360;10.958;2022-09-09T17:30:26;8.40;;;2.15;;
56667;SDS011;42542;48.360;10.958;2022-09-09T17:33:28;5.65;;;2.05;;
56667;SDS011;42542;48.360;10.958;2022-09-09T17:36:34;5.80;;;2.07;;
56667;SDS011;42542;48.360;10.958;2022-09-09T17:39:37;6.38;;;2.30;;
56667;SDS011;42542;48.360;10.958;2022-09-09T17:42:39;5.60;;;2.17;;
56667;SDS011;42542;48.360;10.958;2022-09-09T17:45:41;7.25;;;2.00;;
56667;SDS011;42542;48.360;10.958;2022-09-09T17:48:43;6.50;;;2.55;;
56667;SDS011;42542;48.360;10.958;2022-09-09T17:51:45;7.00;;;2.30;;
56667;SDS011;42542;48.360;10.958;2022-09-09T17:54:47;7.22;;;2.38;;
56667;SDS011;42542;48.360;10.958;2022-09-09T17:57:50;6.75;;;2.00;;
56667;SDS011;42542;48.360;10.958;2022-09-09T18:00:54;9.13;;;2.50;;
56667;SDS011;42542;48.360;10.958;2022-09-09T18:03:56;8.55;;;2.50;;
56667;SDS011;42542;48.360;10.958;2022-09-09T18:07:01;7.83;;;2.73;;
56667;SDS011;42542;48.360;10.958;2022-09-09T18:10:02;7.50;;;2.55;;
56667;SDS011;42542;48.360;10.958;2022-09-09T18:13:04;4.47;;;1.15;;
56667;SDS011;42542;48.360;10.958;2022-09-09T18:16:09;4.50;;;1.10;;
56667;SDS011;42542;48.360;10.958;2022-09-09T18:19:11;10.43;;;1.40;;
56667;SDS011;42542;48.360;10.958;2022-09-09T18:22:15;4.27;;;1.10;;
56667;SDS011;42542;48.360;10.958;2022-09-09T18:25:20;5.10;;;1.08;;
56667;SDS011;42542;48.360;10.958;2022-09-09T18:28:21;5.70;;;1.02;;
56667;SDS011;42542;48.360;10.958;2022-09-09T18:31:26;4.93;;;1.00;;
56667;SDS011;42542;48.360;10.958;2022-09-09T18:34:29;7.15;;;1.08;;
56667;SDS011;42542;48.360;10.958;2022-09-09T18:37:31;6.77;;;1.03;;
56667;SDS011;42542;48.360;10.958;2022-09-09T18:40:34;3.97;;;1.10;;
56667;SDS011;42542;48.360;10.958;2022-09-09T18:43:35;5.10;;;1.20;;
56667;SDS011;42542;48.360;10.958;2022-09-09T18:46:37;5.07;;;1.40;;
56667;SDS011;42542;48.360;10.958;2022-09-09T18:49:40;5.50;;;1.20;;
56667;SDS011;42542;48.360;10.958;2022-09-09T18:52:41;4.85;;;1.25;;
56667;SDS011;42542;48.360;10.958;2022-09-09T18:55:43;4.68;;;1.33;;
56667;SDS011;42542;48.360;10.958;2022-09-09T18:58:45;7.03;;;1.30;;
56667;SDS011;42542;48.360;10.958;2022-09-09T19:01:49;5.03;;;1.40;;
56667;SDS011;42542;48.360;10.958;2022-09-09T19:04:52;5.27;;;1.40;;
56667;SDS011;42542;48.360;10.958;2022-09-09T19:07:53;6.40;;;1.40;;
56667;SDS011;42542;48.360;10.958;2022-09-09T19:10:56;7.53;;;1.50;;
56667;SDS011;42542;48.360;10.958;2022-09-09T19:14:03;5.03;;;1.45;;
56667;SDS011;42542;48.360;10.958;2022-09-09T19:17:05;6.28;;;1.60;;
56667;SDS011;42542;48.360;10.958;2022-09-09T19:20:07;5.30;;;1.50;;
56667;SDS011;42542;48.360;10.958;2022-09-09T19:23:09;6.18;;;1.60;;
56667;SDS011;42542;48.360;10.958;2022-09-09T19:26:11;5.88;;;1.75;;
56667;SDS011;42542;48.360;10.958;2022-09-09T19:29:18;6.53;;;1.60;;
56667;SDS011;42542;48.360;10.958;2022-09-09T19:32:30;6.40;;;1.70;;
56667;SDS011;42542;48.360;10.958;2022-09-09T19:35:56;7.00;;;1.70;;
56667;SDS011;42542;48.360;10.958;2022-09-09T19:39:02;5.40;;;1.63;;
56667;SDS011;42542;48.360;10.958;2022-09-09T19:42:05;6.72;;;1.75;;
56667;SDS011;42542;48.360;10.958;2022-09-09T19:45:07;8.10;;;1.90;;
56667;SDS011;42542;48.360;10.958;2022-09-09T19:48:10;8.00;;;2.17;;
56667;SDS011;42542;48.360;10.958;2022-09-09T19:51:16;7.25;;;2.10;;
56667;SDS011;42542;48.360;10.958;2022-09-09T19:54:25;6.65;;;2.00;;
56667;SDS011;42542;48.360;10.958;2022-09-09T19:57:27;6.22;;;1.90;;
56667;SDS011;42542;48.360;10.958;2022-09-09T20:00:31;7.13;;;1.80;;
56667;SDS011;42542;48.360;10.958;2022-09-09T20:03:40;8.32;;;2.00;;
56667;SDS011;42542;48.360;10.958;2022-09-09T20:06:43;6.97;;;1.98;;
56667;SDS011;42542;48.360;10.958;2022-09-09T20:09:46;7.32;;;2.03;;
56667;SDS011;42542;48.360;10.958;2022-09-09T20:12:47;6.37;;;2.10;;
56667;SDS011;42542;48.360;10.958;2022-09-09T20:16:01;6.13;;;2.20;;
56667;SDS011;42542;48.360;10.958;2022-09-09T20:19:05;9.65;;;2.40;;
56667;SDS011;42542;48.360;10.958;2022-09-09T20:22:10;6.53;;;2.17;;
56667;SDS011;42542;48.360;10.958;2022-09-09T20:25:12;5.93;;;2.13;;
56667;SDS011;42542;48.360;10.958;2022-09-09T20:28:15;6.30;;;2.30;;
56667;SDS011;42542;48.360;10.958;2022-09-09T20:31:29;6.50;;;2.17;;
56667;SDS011;42542;48.360;10.958;2022-09-09T20:34:33;7.60;;;2.38;;